Time;durP1;ratioP1;P1;durP2;ratioP2;P2;SDS_P1;SDS_P2;PMS_P1;PMS_P2;Temp;Humidity;BMP_temperature;BMP_pressure;BME280_temperature;BME280_humidity;BME280_pressure;Samples;Min_cycle;Max_cycle;Signal;HPM_P1;HPM_P2
2020/12/28 00:00:05;;;;;;;13.18;8.95;;;;;;;;;;10442244;27;20070;-64
2020/12/28 00:05:10;;;;;;;12.85;11.10;;;;;;;;;;10451232;27;20078;-67
2020/12/28 00:10:09;;;;;;;12.25;10.10;;;;;;;;;;10443922;27;20086;-62
2020/12/28 00:15:07;;;;;;;10.68;9.57;;;;;;;;;;10443915;27;20094;-62
2020/12/28 00:20:04;;;;;;;11.23;10.05;;;;;;;;;;10444062;27;20050;-64
2020/12/28 00:25:01;;;;;;;10.68;9.45;;;;;;;;;;10443125;27;20067;-62
2020/12/28 00:29:59;;;;;;;12.18;9.02;;;;;;;;;;10443362;27;20481;-62
2020/12/28 00:34:57;;;;;;;10.73;9.57;;;;;;;;;;10443684;27;20074;-63
2020/12/28 00:39:54;;;;;;;13.98;9.98;;;;;;;;;;10443605;27;20114;-63
2020/12/28 00:44:52;;;;;;;12.77;10.15;;;;;;;;;;10440367;27;20047;-63
2020/12/28 00:49:50;;;;;;;11.25;9.38;;;;;;;;;;10442554;27;20066;-62
2020/12/28 00:54:47;;;;;;;12.35;10.07;;;;;;;;;;10441647;27;20911;-64
2020/12/28 00:59:44;;;;;;;11.27;9.65;;;;;;;;;;10423413;27;20404;-62
2020/12/28 01:04:47;;;;;;;11.85;9.40;;;;;;;;;;10423459;27;20521;-62
2020/12/28 01:09:50;;;;;;;11.52;10.27;;;;;;;;;;10422216;27;20058;-63
2020/12/28 01:14:47;;;;;;;12.70;8.77;;;;;;;;;;10441195;27;20070;-63
2020/12/28 01:19:49;;;;;;;9.90;8.90;;;;;;;;;;10422658;27;20040;-63
2020/12/28 01:24:47;;;;;;;10.23;8.32;;;;;;;;;;10441445;27;20043;-63
2020/12/28 01:29:47;;;;;;;10.38;6.50;;;;;;;;;;10422671;27;20076;-63
2020/12/28 01:34:46;;;;;;;10.13;7.53;;;;;;;;;;10422700;27;20451;-63
2020/12/28 01:39:44;;;;;;;8.25;6.30;;;;;;;;;;10421787;27;20039;-63
2020/12/28 01:44:42;;;;;;;8.48;7.10;;;;;;;;;;10441023;27;20059;-63
2020/12/28 01:49:49;;;;;;;9.25;8.23;;;;;;;;;;10422175;27;20442;-63
2020/12/28 01:54:46;;;;;;;10.57;8.48;;;;;;;;;;10440000;27;20079;-62
2020/12/28 01:59:47;;;;;;;11.38;9.00;;;;;;;;;;10440193;27;20079;-63
2020/12/28 02:04:54;;;;;;;10.32;8.15;;;;;;;;;;10421339;27;20051;-63
2020/12/28 02:09:52;;;;;;;7.35;6.38;;;;;;;;;;10418954;27;20036;-63
2020/12/28 02:14:50;;;;;;;10.15;9.15;;;;;;;;;;10439098;27;20500;-63
2020/12/28 02:20:19;;;;;;;8.48;6.47;;;;;;;;;;10438255;27;20042;-63
2020/12/28 02:25:18;;;;;;;7.25;6.38;;;;;;;;;;10420298;27;20400;-62
2020/12/28 02:30:17;;;;;;;13.18;6.40;;;;;;;;;;10420389;27;20684;-63
2020/12/28 02:35:33;;;;;;;;;;;;;;;;;;10442528;27;20518;-63
2020/12/28 02:40:31;;;;;;;24.27;15.65;;;;;;;;;;10420361;27;19920;-62
2020/12/28 02:45:29;;;;;;;20.88;18.77;;;;;;;;;;10419631;27;20039;-61
2020/12/28 02:50:44;;;;;;;;;;;;;;;;;;10442215;27;20075;-62
2020/12/28 02:56:01;;;;;;;22.25;17.77;;;;;;;;;;10440608;27;20364;-62
2020/12/28 03:01:17;;;;;;;12.90;10.85;;;;;;;;;;10440262;27;20074;-63
2020/12/28 03:06:33;;;;;;;9.65;7.57;;;;;;;;;;10438468;27;20043;-62
2020/12/28 03:11:48;;;;;;;;;;;;;;;;;;10440053;27;20070;-62
2020/12/28 03:17:05;;;;;;;9.88;8.63;;;;;;;;;;10439009;27;19923;-62
2020/12/28 03:22:21;;;;;;;7.32;6.45;;;;;;;;;;10436585;28;20522;-62
2020/12/28 03:27:37;;;;;;;7.40;6.30;;;;;;;;;;10436697;28;20047;-62
2020/12/28 03:32:53;;;;;;;7.15;6.43;;;;;;;;;;10451417;27;20058;-63
2020/12/28 03:38:10;;;;;;;7.65;6.88;;;;;;;;;;10457128;27;20078;-62
2020/12/28 03:43:26;;;;;;;10.50;7.00;;;;;;;;;;10455424;27;20551;-63
2020/12/28 03:48:43;;;;;;;9.07;7.13;;;;;;;;;;10454154;27;20472;-64
2020/12/28 03:53:59;;;;;;;14.35;11.05;;;;;;;;;;10445162;27;20497;-64
2020/12/28 03:59:15;;;;;;;16.20;13.75;;;;;;;;;;10451108;27;20055;-63
2020/12/28 04:04:32;;;;;;;15.90;14.05;;;;;;;;;;10452488;27;20484;-63
2020/12/28 04:09:55;;;;;;;35.85;28.52;;;;;;;;;;10417322;27;20188;-62
2020/12/28 04:15:18;;;;;;;12.63;9.52;;;;;;;;;;10440921;27;20075;-63
2020/12/28 04:20:17;;;;;;;9.25;7.80;;;;;;;;;;10443254;27;20507;-63
2020/12/28 04:25:15;;;;;;;9.27;7.90;;;;;;;;;;10442349;27;20083;-63
2020/12/28 04:30:12;;;;;;;8.05;7.25;;;;;;;;;;10440349;27;20043;-63
2020/12/28 04:35:10;;;;;;;8.93;7.30;;;;;;;;;;10443043;27;20520;-64
2020/12/28 04:40:08;;;;;;;7.57;6.78;;;;;;;;;;10444448;27;20145;-63
2020/12/28 04:45:06;;;;;;;5.68;5.07;;;;;;;;;;10443769;27;20067;-63
2020/12/28 04:50:03;;;;;;;7.15;6.43;;;;;;;;;;10444510;27;20046;-63
2020/12/28 04:55:01;;;;;;;6.50;5.82;;;;;;;;;;10443322;27;20171;-63
2020/12/28 05:00:00;;;;;;;5.88;5.22;;;;;;;;;;10442959;27;20066;-62
2020/12/28 05:05:04;;;;;;;5.88;5.28;;;;;;;;;;10442759;27;20081;-62
2020/12/28 05:10:01;;;;;;;14.25;11.02;;;;;;;;;;10442179;27;20510;-62
2020/12/28 05:15:06;;;;;;;59.70;17.40;;;;;;;;;;10442519;27;20067;-63
2020/12/28 05:20:04;;;;;;;21.73;18.45;;;;;;;;;;10442202;27;20676;-63
2020/12/28 05:25:02;;;;;;;24.90;17.63;;;;;;;;;;10442966;27;20055;-62
2020/12/28 05:30:00;;;;;;;45.58;19.55;;;;;;;;;;10440832;27;20530;-62
2020/12/28 05:34:58;;;;;;;35.55;22.58;;;;;;;;;;10437598;27;20469;-61
2020/12/28 05:39:58;;;;;;;116.82;28.20;;;;;;;;;;10430099;27;20074;-63
2020/12/28 05:44:55;;;;;;;39.28;19.83;;;;;;;;;;10437620;27;20130;-62
2020/12/28 05:49:53;;;;;;;151.55;26.55;;;;;;;;;;10435858;27;20519;-63
2020/12/28 05:54:52;;;;;;;92.63;23.92;;;;;;;;;;10419372;27;20078;-63
2020/12/28 05:59:50;;;;;;;63.50;17.35;;;;;;;;;;10439109;27;20412;-62
2020/12/28 06:04:47;;;;;;;124.95;20.70;;;;;;;;;;10439227;27;20062;-63
2020/12/28 06:09:45;;;;;;;136.55;25.88;;;;;;;;;;10438604;27;20078;-62
2020/12/28 06:14:43;;;;;;;102.00;26.67;;;;;;;;;;10438105;27;20074;-62
2020/12/28 06:19:41;;;;;;;91.32;19.85;;;;;;;;;;10438775;27;20453;-63
2020/12/28 06:24:38;;;;;;;160.60;39.65;;;;;;;;;;10438005;27;20063;-63
2020/12/28 06:29:36;;;;;;;164.93;24.05;;;;;;;;;;10438514;27;20066;-63
2020/12/28 06:34:34;;;;;;;122.15;26.52;;;;;;;;;;10436532;27;20055;-63
2020/12/28 06:39:31;;;;;;;127.72;34.03;;;;;;;;;;10435712;27;20480;-63
2020/12/28 06:44:29;;;;;;;121.90;21.25;;;;;;;;;;10438316;27;20062;-64
2020/12/28 06:49:26;;;;;;;87.50;27.33;;;;;;;;;;10436739;27;20070;-63
2020/12/28 06:54:25;;;;;;;84.55;33.35;;;;;;;;;;10437025;27;20089;-64
2020/12/28 06:59:22;;;;;;;47.58;25.08;;;;;;;;;;10436244;27;20518;-63
2020/12/28 07:04:20;;;;;;;93.70;42.17;;;;;;;;;;10436447;27;20081;-62
2020/12/28 07:09:17;;;;;;;134.10;33.67;;;;;;;;;;10436682;27;20063;-63
2020/12/28 07:14:17;;;;;;;99.25;23.98;;;;;;;;;;10437902;28;20543;-62
2020/12/28 07:19:16;;;;;;;70.20;27.55;;;;;;;;;;10434161;28;20054;-63
2020/12/28 07:24:14;;;;;;;129.18;25.35;;;;;;;;;;10429906;28;20074;-64
2020/12/28 07:29:12;;;;;;;92.22;38.35;;;;;;;;;;10431309;28;20047;-62
2020/12/28 07:34:13;;;;;;;135.02;26.50;;;;;;;;;;10435626;28;20067;-63
2020/12/28 07:39:11;;;;;;;101.93;24.75;;;;;;;;;;10438042;28;20078;-63
2020/12/28 07:44:12;;;;;;;70.05;23.77;;;;;;;;;;10436630;28;20095;-63
2020/12/28 07:49:15;;;;;;;99.80;40.15;;;;;;;;;;10436233;28;20070;-63
2020/12/28 07:54:17;;;;;;;65.85;19.88;;;;;;;;;;10434217;28;20082;-62
2020/12/28 07:59:34;;;;;;;98.93;28.45;;;;;;;;;;10434671;28;20063;-62
2020/12/28 08:04:33;;;;;;;145.57;27.20;;;;;;;;;;10411315;28;20039;-63
2020/12/28 08:09:30;;;;;;;180.95;60.83;;;;;;;;;;10435529;28;20062;-62
2020/12/28 08:14:27;;;;;;;106.40;39.33;;;;;;;;;;10435662;28;20163;-62
2020/12/28 08:19:26;;;;;;;196.57;46.15;;;;;;;;;;10438269;27;20070;-63
2020/12/28 08:24:25;;;;;;;220.15;55.63;;;;;;;;;;10443234;27;20075;-63
2020/12/28 08:29:23;;;;;;;96.15;32.25;;;;;;;;;;10443004;27;20043;-62
2020/12/28 08:34:29;;;;;;;97.63;24.05;;;;;;;;;;10442749;27;20059;-63
2020/12/28 08:39:27;;;;;;;74.53;25.35;;;;;;;;;;10442278;27;20479;-63
2020/12/28 08:44:28;;;;;;;110.80;44.08;;;;;;;;;;10442954;27;20152;-64
2020/12/28 08:49:30;;;;;;;143.60;63.00;;;;;;;;;;10441710;27;20078;-63
2020/12/28 08:54:28;;;;;;;93.30;39.38;;;;;;;;;;10441109;27;20074;-62
2020/12/28 08:59:26;;;;;;;72.35;36.30;;;;;;;;;;10442706;27;20344;-62
2020/12/28 09:04:24;;;;;;;41.85;27.92;;;;;;;;;;10442379;27;20062;-62
2020/12/28 09:09:22;;;;;;;68.60;44.10;;;;;;;;;;10441486;27;20066;-62
2020/12/28 09:14:20;;;;;;;68.68;50.70;;;;;;;;;;10440429;27;20074;-62
2020/12/28 09:19:17;;;;;;;74.72;44.60;;;;;;;;;;10440937;27;20126;-63
2020/12/28 09:24:15;;;;;;;67.47;37.63;;;;;;;;;;10440359;27;20067;-63
2020/12/28 09:29:12;;;;;;;62.90;38.55;;;;;;;;;;10437370;27;20067;-62
2020/12/28 09:34:11;;;;;;;70.82;42.58;;;;;;;;;;10439953;27;20092;-63
2020/12/28 09:39:08;;;;;;;118.60;67.72;;;;;;;;;;10441041;27;20352;-63
2020/12/28 09:44:06;;;;;;;78.95;47.72;;;;;;;;;;10440568;27;20071;-62
2020/12/28 09:49:03;;;;;;;84.45;55.45;;;;;;;;;;10439403;27;20067;-62
2020/12/28 09:54:01;;;;;;;62.50;47.30;;;;;;;;;;10440032;27;20079;-63
2020/12/28 09:58:59;;;;;;;47.92;38.15;;;;;;;;;;10440090;27;20404;-64
2020/12/28 10:03:56;;;;;;;69.35;55.20;;;;;;;;;;10439275;27;20070;-62
2020/12/28 10:08:53;;;;;;;49.88;37.28;;;;;;;;;;10439656;27;20421;-65
2020/12/28 10:13:52;;;;;;;28.80;21.60;;;;;;;;;;10435541;27;20070;-64
2020/12/28 10:18:49;;;;;;;33.60;27.52;;;;;;;;;;10438249;27;20487;-63
2020/12/28 10:23:47;;;;;;;23.02;17.08;;;;;;;;;;10437973;27;20483;-62
2020/12/28 10:28:44;;;;;;;43.13;26.95;;;;;;;;;;10438585;27;20059;-63
2020/12/28 10:33:43;;;;;;;23.65;17.85;;;;;;;;;;10438301;27;20066;-63
2020/12/28 10:38:40;;;;;;;31.08;23.08;;;;;;;;;;10437632;27;20071;-62
2020/12/28 10:43:38;;;;;;;31.27;24.45;;;;;;;;;;10437532;27;20069;-62
2020/12/28 10:48:35;;;;;;;48.60;34.38;;;;;;;;;;10437850;27;20065;-63
2020/12/28 10:53:33;;;;;;;47.25;34.78;;;;;;;;;;10435492;27;20507;-63
2020/12/28 10:58:31;;;;;;;78.57;52.25;;;;;;;;;;10437947;27;20059;-63
2020/12/28 11:03:28;;;;;;;50.58;36.45;;;;;;;;;;10437913;27;20067;-63
2020/12/28 11:08:25;;;;;;;33.70;23.98;;;;;;;;;;10418701;27;20035;-63
2020/12/28 11:13:24;;;;;;;34.50;26.88;;;;;;;;;;10437100;27;20081;-62
2020/12/28 11:18:21;;;;;;;33.72;25.60;;;;;;;;;;10436906;28;20132;-63
2020/12/28 11:23:19;;;;;;;62.90;39.20;;;;;;;;;;10417977;28;20046;-63
2020/12/28 11:28:16;;;;;;;84.95;56.33;;;;;;;;;;10436455;28;20082;-62
2020/12/28 11:33:15;;;;;;;90.40;61.55;;;;;;;;;;10435939;28;20508;-62
2020/12/28 11:38:12;;;;;;;56.17;38.70;;;;;;;;;;10433741;28;20067;-62
2020/12/28 11:43:10;;;;;;;69.95;51.78;;;;;;;;;;10435733;28;20078;-63
2020/12/28 11:48:08;;;;;;;122.15;86.25;;;;;;;;;;10436191;28;20116;-63
2020/12/28 11:53:06;;;;;;;107.95;72.88;;;;;;;;;;10436730;27;20086;-64
2020/12/28 11:58:03;;;;;;;148.82;101.25;;;;;;;;;;10444414;27;20050;-63
2020/12/28 12:03:01;;;;;;;173.90;115.65;;;;;;;;;;10444243;27;20496;-63
2020/12/28 12:07:58;;;;;;;67.93;45.40;;;;;;;;;;10444182;27;20066;-62
2020/12/28 12:12:56;;;;;;;114.13;86.22;;;;;;;;;;10443909;27;20094;-63
2020/12/28 12:17:53;;;;;;;88.68;57.55;;;;;;;;;;10441160;27;20325;-62
2020/12/28 12:22:51;;;;;;;50.63;33.97;;;;;;;;;;10443515;27;20070;-63
2020/12/28 12:27:48;;;;;;;71.50;48.83;;;;;;;;;;10443364;27;20043;-63
2020/12/28 12:32:48;;;;;;;61.03;42.17;;;;;;;;;;10442766;27;20071;-63
2020/12/28 12:37:45;;;;;;;32.30;24.67;;;;;;;;;;10442695;27;20062;-63
2020/12/28 12:42:42;;;;;;;29.65;20.27;;;;;;;;;;10442394;27;20039;-62
2020/12/28 12:47:41;;;;;;;51.65;34.72;;;;;;;;;;10441409;27;20035;-62
2020/12/28 12:52:40;;;;;;;38.55;27.58;;;;;;;;;;10442605;27;20086;-63
2020/12/28 12:57:37;;;;;;;24.35;16.70;;;;;;;;;;10441748;27;20082;-62
2020/12/28 13:02:36;;;;;;;19.33;13.57;;;;;;;;;;10443091;27;20031;-63
2020/12/28 13:07:33;;;;;;;23.50;13.55;;;;;;;;;;10439254;27;20035;-63
2020/12/28 13:12:31;;;;;;;48.53;29.85;;;;;;;;;;10442793;27;20086;-63
2020/12/28 13:17:29;;;;;;;41.75;26.73;;;;;;;;;;10442001;27;20043;-62
2020/12/28 13:22:26;;;;;;;65.18;32.85;;;;;;;;;;10440978;27;20080;-63
2020/12/28 13:27:24;;;;;;;77.65;38.17;;;;;;;;;;10441467;27;20427;-62
2020/12/28 13:32:25;;;;;;;61.92;30.23;;;;;;;;;;10440413;27;20074;-62
2020/12/28 13:37:23;;;;;;;129.10;72.90;;;;;;;;;;10421944;27;20070;-62
2020/12/28 13:42:20;;;;;;;119.18;57.95;;;;;;;;;;10438683;27;20078;-63
2020/12/28 13:47:18;;;;;;;155.60;88.90;;;;;;;;;;10439991;27;20510;-63
2020/12/28 13:52:16;;;;;;;58.90;34.05;;;;;;;;;;10439318;27;20043;-63
2020/12/28 13:57:14;;;;;;;109.47;63.00;;;;;;;;;;10437610;27;20078;-63
2020/12/28 14:02:11;;;;;;;98.63;56.15;;;;;;;;;;10437554;27;20066;-62
2020/12/28 14:07:09;;;;;;;71.40;43.33;;;;;;;;;;10440091;27;20435;-63
2020/12/28 14:12:07;;;;;;;75.68;40.17;;;;;;;;;;10439070;27;20077;-63
2020/12/28 14:17:04;;;;;;;62.35;31.00;;;;;;;;;;10438225;27;20086;-62
2020/12/28 14:22:01;;;;;;;146.73;80.18;;;;;;;;;;10436471;27;20058;-62
2020/12/28 14:26:59;;;;;;;73.90;46.15;;;;;;;;;;10429302;27;20483;-62
2020/12/28 14:31:57;;;;;;;37.78;26.42;;;;;;;;;;10415862;27;20059;-62
2020/12/28 14:36:55;;;;;;;66.13;43.08;;;;;;;;;;10417507;27;20553;-62
2020/12/28 14:41:52;;;;;;;72.55;47.78;;;;;;;;;;10432360;27;20067;-62
2020/12/28 14:46:50;;;;;;;58.13;40.08;;;;;;;;;;10438265;27;20067;-63
2020/12/28 14:51:48;;;;;;;63.55;43.70;;;;;;;;;;10439187;27;20040;-63
2020/12/28 14:56:45;;;;;;;41.83;29.63;;;;;;;;;;10435613;27;20059;-63
2020/12/28 15:01:43;;;;;;;41.03;28.83;;;;;;;;;;10416528;27;20500;-60
2020/12/28 15:06:40;;;;;;;40.17;28.55;;;;;;;;;;10426363;27;20464;-61
2020/12/28 15:11:38;;;;;;;64.47;48.10;;;;;;;;;;10428419;27;20063;-62
2020/12/28 15:16:36;;;;;;;61.63;39.00;;;;;;;;;;10408791;28;20086;-63
2020/12/28 15:21:33;;;;;;;73.20;47.47;;;;;;;;;;10427121;28;20465;-62
2020/12/28 15:26:30;;;;;;;45.55;30.45;;;;;;;;;;10432019;27;20067;-63
2020/12/28 15:31:28;;;;;;;24.10;16.98;;;;;;;;;;10437808;27;20488;-64
2020/12/28 15:36:26;;;;;;;38.45;29.48;;;;;;;;;;10440490;27;20078;-63
2020/12/28 15:41:23;;;;;;;37.75;27.17;;;;;;;;;;10441750;27;20066;-63
2020/12/28 15:46:20;;;;;;;38.88;30.73;;;;;;;;;;10443742;27;20408;-63
2020/12/28 15:51:18;;;;;;;43.28;31.88;;;;;;;;;;10425415;27;20047;-63
2020/12/28 15:56:16;;;;;;;19.30;13.90;;;;;;;;;;10444896;27;20073;-61
2020/12/28 16:01:15;;;;;;;40.30;25.15;;;;;;;;;;10442250;27;20070;-63
2020/12/28 16:06:13;;;;;;;62.80;38.75;;;;;;;;;;10444856;27;20531;-63
2020/12/28 16:11:11;;;;;;;50.28;26.88;;;;;;;;;;10444507;27;20429;-62
2020/12/28 16:16:10;;;;;;;149.93;74.60;;;;;;;;;;10444124;27;20131;-64
2020/12/28 16:21:07;;;;;;;47.92;28.73;;;;;;;;;;10443319;27;20078;-63
2020/12/28 16:26:04;;;;;;;23.20;14.68;;;;;;;;;;10443396;27;20047;-62
2020/12/28 16:31:03;;;;;;;64.03;41.53;;;;;;;;;;10443692;27;20073;-63
2020/12/28 16:36:00;;;;;;;18.63;12.50;;;;;;;;;;10442623;27;20082;-63
2020/12/28 16:40:57;;;;;;;14.90;9.10;;;;;;;;;;10441545;27;20075;-64
2020/12/28 16:45:55;;;;;;;22.05;11.80;;;;;;;;;;10442841;27;20465;-62
2020/12/28 16:50:53;;;;;;;24.10;16.83;;;;;;;;;;10441679;27;20047;-63
2020/12/28 16:55:50;;;;;;;27.05;16.50;;;;;;;;;;10442412;27;20494;-63
2020/12/28 17:00:48;;;;;;;25.35;17.17;;;;;;;;;;10442460;27;20039;-62
2020/12/28 17:05:45;;;;;;;35.30;24.95;;;;;;;;;;10437026;27;20084;-63
2020/12/28 17:10:46;;;;;;;13.40;7.45;;;;;;;;;;10431289;27;20058;-63
2020/12/28 17:15:43;;;;;;;18.70;11.25;;;;;;;;;;10434724;27;20497;-62
2020/12/28 17:20:40;;;;;;;18.65;12.88;;;;;;;;;;10434265;27;20078;-63
2020/12/28 17:25:37;;;;;;;15.05;13.48;;;;;;;;;;10435206;27;20077;-63
2020/12/28 17:30:36;;;;;;;10.40;7.20;;;;;;;;;;10442287;27;20043;-63
2020/12/28 17:35:34;;;;;;;6.20;5.35;;;;;;;;;;10434034;27;20071;-63
2020/12/28 17:40:31;;;;;;;7.65;6.63;;;;;;;;;;10441987;27;20468;-63
2020/12/28 17:45:28;;;;;;;18.38;11.27;;;;;;;;;;10433676;27;20570;-62
2020/12/28 17:50:27;;;;;;;22.17;14.07;;;;;;;;;;10440016;27;20070;-62
2020/12/28 17:55:24;;;;;;;14.48;10.10;;;;;;;;;;10422244;27;20047;-64
2020/12/28 18:00:21;;;;;;;11.82;8.98;;;;;;;;;;10436992;27;20060;-62
2020/12/28 18:05:19;;;;;;;13.77;8.82;;;;;;;;;;10438572;27;20071;-62
2020/12/28 18:10:17;;;;;;;12.32;9.00;;;;;;;;;;10436071;27;20043;-61
2020/12/28 18:15:15;;;;;;;9.43;7.53;;;;;;;;;;10441388;27;20071;-63
2020/12/28 18:20:12;;;;;;;10.55;8.13;;;;;;;;;;10441349;27;20508;-63
2020/12/28 18:25:09;;;;;;;13.50;10.85;;;;;;;;;;10440991;27;20055;-62
2020/12/28 18:30:08;;;;;;;11.82;7.97;;;;;;;;;;10440043;27;20163;-63
2020/12/28 18:35:12;;;;;;;16.20;9.50;;;;;;;;;;10440862;27;20078;-63
2020/12/28 18:40:10;;;;;;;8.20;6.40;;;;;;;;;;10439930;27;20503;-62
2020/12/28 18:45:10;;;;;;;13.18;7.97;;;;;;;;;;10439673;27;20071;-62
2020/12/28 18:50:07;;;;;;;9.65;7.18;;;;;;;;;;10440217;27;20039;-62
2020/12/28 18:55:05;;;;;;;15.13;10.85;;;;;;;;;;10438514;27;20083;-62
2020/12/28 19:00:02;;;;;;;21.77;14.35;;;;;;;;;;10438960;27;20047;-62
2020/12/28 19:05:01;;;;;;;10.90;7.35;;;;;;;;;;10439171;27;20524;-62
2020/12/28 19:09:58;;;;;;;26.98;19.02;;;;;;;;;;10439513;27;20046;-62
2020/12/28 19:14:56;;;;;;;18.05;11.80;;;;;;;;;;10439302;27;20039;-62
2020/12/28 19:19:53;;;;;;;12.00;7.88;;;;;;;;;;10439296;28;20396;-63
2020/12/28 19:24:52;;;;;;;12.90;7.82;;;;;;;;;;10437503;28;20058;-62
2020/12/28 19:29:49;;;;;;;20.33;12.02;;;;;;;;;;10438532;28;20043;-62
2020/12/28 19:34:47;;;;;;;22.05;14.52;;;;;;;;;;10438423;28;20070;-62
2020/12/28 19:39:44;;;;;;;21.60;12.73;;;;;;;;;;10436656;28;20528;-62
2020/12/28 19:44:42;;;;;;;22.13;15.75;;;;;;;;;;10436979;28;20059;-61
2020/12/28 19:49:40;;;;;;;20.90;13.95;;;;;;;;;;10438131;28;20043;-62
2020/12/28 19:54:37;;;;;;;23.40;14.68;;;;;;;;;;10436425;28;20086;-61
2020/12/28 19:59:36;;;;;;;34.03;21.83;;;;;;;;;;10416875;28;20488;-63
2020/12/28 20:04:34;;;;;;;15.50;10.32;;;;;;;;;;10434122;28;20176;-62
2020/12/28 20:09:32;;;;;;;38.47;22.48;;;;;;;;;;10436925;28;20035;-63
2020/12/28 20:14:29;;;;;;;24.65;13.98;;;;;;;;;;10438191;27;20131;-63
2020/12/28 20:19:26;;;;;;;99.45;47.75;;;;;;;;;;10426218;27;20433;-63
2020/12/28 20:24:25;;;;;;;39.85;23.38;;;;;;;;;;10444086;27;20491;-63
2020/12/28 20:29:27;;;;;;;12.02;8.25;;;;;;;;;;10445028;27;20075;-63
2020/12/28 20:34:24;;;;;;;16.92;12.48;;;;;;;;;;10444463;27;20078;-63
2020/12/28 20:39:22;;;;;;;17.00;11.45;;;;;;;;;;10443197;27;20074;-63
2020/12/28 20:44:20;;;;;;;7.05;5.85;;;;;;;;;;10442821;27;20439;-62
2020/12/28 20:49:18;;;;;;;8.40;6.45;;;;;;;;;;10444101;27;20051;-61
2020/12/28 20:54:15;;;;;;;5.18;3.95;;;;;;;;;;10443016;27;20093;-61
2020/12/28 20:59:15;;;;;;;10.35;5.60;;;;;;;;;;10421736;27;20043;-62
2020/12/28 21:04:13;;;;;;;5.25;4.47;;;;;;;;;;10440709;27;20047;-62
2020/12/28 21:09:11;;;;;;;9.25;5.65;;;;;;;;;;10443073;27;20070;-61
2020/12/28 21:14:10;;;;;;;4.68;2.70;;;;;;;;;;10442744;27;20109;-62
2020/12/28 21:19:08;;;;;;;4.32;2.85;;;;;;;;;;10443463;27;20428;-63
2020/12/28 21:24:06;;;;;;;5.03;3.40;;;;;;;;;;10442978;27;20054;-63
2020/12/28 21:29:03;;;;;;;9.93;5.25;;;;;;;;;;10441954;27;20066;-62
2020/12/28 21:34:01;;;;;;;15.10;9.30;;;;;;;;;;10440885;27;20078;-62
2020/12/28 21:38:58;;;;;;;10.25;7.50;;;;;;;;;;10441236;27;20074;-63
2020/12/28 21:43:56;;;;;;;10.27;5.10;;;;;;;;;;10441949;27;20042;-63
2020/12/28 21:48:54;;;;;;;7.38;4.70;;;;;;;;;;10438611;27;20067;-63
2020/12/28 21:53:51;;;;;;;6.75;3.95;;;;;;;;;;10441244;27;20047;-63
2020/12/28 21:58:48;;;;;;;2.97;2.53;;;;;;;;;;10441774;27;20031;-63
2020/12/28 22:03:46;;;;;;;4.97;2.58;;;;;;;;;;10440371;27;20078;-63
2020/12/28 22:08:44;;;;;;;3.33;2.78;;;;;;;;;;10439512;27;20089;-63
2020/12/28 22:13:42;;;;;;;5.43;3.75;;;;;;;;;;10439584;27;20035;-62
2020/12/28 22:18:40;;;;;;;5.80;3.70;;;;;;;;;;10440093;27;20336;-62
2020/12/28 22:23:38;;;;;;;13.45;9.85;;;;;;;;;;10441513;27;20506;-62
2020/12/28 22:28:35;;;;;;;10.15;6.35;;;;;;;;;;10437376;27;20093;-62
2020/12/28 22:33:33;;;;;;;12.45;7.22;;;;;;;;;;10439566;27;20328;-62
2020/12/28 22:38:30;;;;;;;8.77;5.72;;;;;;;;;;10439932;27;20088;-62
2020/12/28 22:43:28;;;;;;;14.93;8.38;;;;;;;;;;10440310;27;20046;-64
2020/12/28 22:48:26;;;;;;;10.80;6.78;;;;;;;;;;10437501;27;20047;-63
2020/12/28 22:53:23;;;;;;;6.53;4.60;;;;;;;;;;10440347;27;20187;-63
2020/12/28 22:58:20;;;;;;;4.15;3.05;;;;;;;;;;10439011;27;20100;-63
2020/12/28 23:03:18;;;;;;;4.47;3.40;;;;;;;;;;10439323;27;20452;-62
2020/12/28 23:08:16;;;;;;;7.45;2.90;;;;;;;;;;10439275;27;20039;-64
2020/12/28 23:13:13;;;;;;;6.70;3.63;;;;;;;;;;10438621;27;20480;-63
2020/12/28 23:18:11;;;;;;;6.18;3.40;;;;;;;;;;10439020;27;20074;-64
2020/12/28 23:23:11;;;;;;;6.80;4.05;;;;;;;;;;10438916;28;20070;-64
2020/12/28 23:28:08;;;;;;;6.60;3.97;;;;;;;;;;10438411;28;20292;-63
2020/12/28 23:33:07;;;;;;;7.75;4.10;;;;;;;;;;10438641;28;20044;-63
2020/12/28 23:38:04;;;;;;;6.82;2.88;;;;;;;;;;10438124;28;20085;-63
2020/12/28 23:43:02;;;;;;;5.50;2.90;;;;;;;;;;10438272;28;20070;-63
2020/12/28 23:48:00;;;;;;;5.80;3.38;;;;;;;;;;10438507;27;20063;-61
2020/12/28 23:52:57;;;;;;;3.72;2.90;;;;;;;;;;10446206;27;20979;-63
2020/12/28 23:57:54;;;;;;;13.88;8.88;;;;;;;;;;10443532;27;20507;-63
